sensor_id;sensor_type;location;lat;lon;timestamp;P1;durP1;ratioP1;P2;durP2;ratioP2
15082;SDS011;7640;53.116;6.878;2023-11-19T00:00:27;50.27;;;22.00;;
15082;SDS011;7640;53.116;6.878;2023-11-19T00:02:56;46.73;;;22.57;;
15082;SDS011;7640;53.116;6.878;2023-11-19T00:05:25;52.30;;;22.63;;
15082;SDS011;7640;53.116;6.878;2023-11-19T00:07:53;48.57;;;22.80;;
15082;SDS011;7640;53.116;6.878;2023-11-19T00:10:23;50.23;;;23.03;;
15082;SDS011;7640;53.116;6.878;2023-11-19T00:12:52;56.87;;;25.73;;
15082;SDS011;7640;53.116;6.878;2023-11-19T00:15:23;49.77;;;22.90;;
15082;SDS011;7640;53.116;6.878;2023-11-19T00:17:52;51.87;;;24.20;;
15082;SDS011;7640;53.116;6.878;2023-11-19T00:20:27;57.67;;;25.53;;
15082;SDS011;7640;53.116;6.878;2023-11-19T00:22:56;49.10;;;21.80;;
15082;SDS011;7640;53.116;6.878;2023-11-19T00:25:26;52.87;;;23.50;;
15082;SDS011;7640;53.116;6.878;2023-11-19T00:27:55;55.47;;;24.30;;
15082;SDS011;7640;53.116;6.878;2023-11-19T00:30:24;53.37;;;25.17;;
15082;SDS011;7640;53.116;6.878;2023-11-19T00:32:53;55.70;;;23.90;;
15082;SDS011;7640;53.116;6.878;2023-11-19T00:35:22;72.10;;;26.47;;
15082;SDS011;7640;53.116;6.878;2023-11-19T00:37:50;58.53;;;24.83;;
15082;SDS011;7640;53.116;6.878;2023-11-19T00:40:20;51.43;;;23.63;;
15082;SDS011;7640;53.116;6.878;2023-11-19T00:42:51;50.53;;;23.43;;
15082;SDS011;7640;53.116;6.878;2023-11-19T00:45:19;53.53;;;22.47;;
15082;SDS011;7640;53.116;6.878;2023-11-19T00:47:48;51.10;;;23.77;;
15082;SDS011;7640;53.116;6.878;2023-11-19T00:50:17;49.37;;;22.80;;
15082;SDS011;7640;53.116;6.878;2023-11-19T00:52:45;47.20;;;22.67;;
15082;SDS011;7640;53.116;6.878;2023-11-19T00:55:14;48.90;;;23.47;;
15082;SDS011;7640;53.116;6.878;2023-11-19T00:57:43;49.03;;;22.80;;
15082;SDS011;7640;53.116;6.878;2023-11-19T01:00:13;54.07;;;23.97;;
15082;SDS011;7640;53.116;6.878;2023-11-19T01:02:46;51.23;;;24.07;;
15082;SDS011;7640;53.116;6.878;2023-11-19T01:05:18;55.20;;;23.57;;
15082;SDS011;7640;53.116;6.878;2023-11-19T01:07:49;51.20;;;23.97;;
15082;SDS011;7640;53.116;6.878;2023-11-19T01:10:20;57.37;;;23.07;;
15082;SDS011;7640;53.116;6.878;2023-11-19T01:12:50;49.53;;;22.07;;
15082;SDS011;7640;53.116;6.878;2023-11-19T01:15:21;47.40;;;21.33;;
15082;SDS011;7640;53.116;6.878;2023-11-19T01:17:50;43.30;;;20.90;;
15082;SDS011;7640;53.116;6.878;2023-11-19T01:20:19;46.47;;;21.73;;
15082;SDS011;7640;53.116;6.878;2023-11-19T01:22:48;44.33;;;19.87;;
15082;SDS011;7640;53.116;6.878;2023-11-19T01:25:17;49.63;;;19.97;;
15082;SDS011;7640;53.116;6.878;2023-11-19T01:27:46;52.27;;;18.00;;
15082;SDS011;7640;53.116;6.878;2023-11-19T01:30:16;47.30;;;18.17;;
15082;SDS011;7640;53.116;6.878;2023-11-19T01:32:47;38.17;;;14.90;;
15082;SDS011;7640;53.116;6.878;2023-11-19T01:35:16;37.23;;;14.43;;
15082;SDS011;7640;53.116;6.878;2023-11-19T01:37:44;40.17;;;14.50;;
15082;SDS011;7640;53.116;6.878;2023-11-19T01:40:12;41.93;;;13.63;;
15082;SDS011;7640;53.116;6.878;2023-11-19T01:42:42;30.90;;;12.47;;
15082;SDS011;7640;53.116;6.878;2023-11-19T01:45:11;30.33;;;10.10;;
15082;SDS011;7640;53.116;6.878;2023-11-19T01:47:57;36.57;;;9.53;;
15082;SDS011;7640;53.116;6.878;2023-11-19T01:50:27;32.67;;;10.53;;
15082;SDS011;7640;53.116;6.878;2023-11-19T01:52:56;44.60;;;10.70;;
15082;SDS011;7640;53.116;6.878;2023-11-19T01:55:25;33.30;;;8.70;;
15082;SDS011;7640;53.116;6.878;2023-11-19T01:57:55;34.50;;;8.70;;
15082;SDS011;7640;53.116;6.878;2023-11-19T02:00:29;39.50;;;8.60;;
15082;SDS011;7640;53.116;6.878;2023-11-19T02:03:02;31.40;;;8.97;;
15082;SDS011;7640;53.116;6.878;2023-11-19T02:05:33;39.43;;;8.73;;
15082;SDS011;7640;53.116;6.878;2023-11-19T02:08:03;39.60;;;8.43;;
15082;SDS011;7640;53.116;6.878;2023-11-19T02:10:31;34.47;;;8.13;;
15082;SDS011;7640;53.116;6.878;2023-11-19T02:13:00;36.10;;;9.03;;
15082;SDS011;7640;53.116;6.878;2023-11-19T02:15:32;33.93;;;8.60;;
15082;SDS011;7640;53.116;6.878;2023-11-19T02:18:21;36.87;;;8.80;;
15082;SDS011;7640;53.116;6.878;2023-11-19T02:20:54;31.83;;;8.70;;
15082;SDS011;7640;53.116;6.878;2023-11-19T02:23:23;37.03;;;8.77;;
15082;SDS011;7640;53.116;6.878;2023-11-19T02:26:02;26.30;;;7.90;;
15082;SDS011;7640;53.116;6.878;2023-11-19T02:28:42;36.40;;;7.80;;
15082;SDS011;7640;53.116;6.878;2023-11-19T02:31:11;32.23;;;7.67;;
15082;SDS011;7640;53.116;6.878;2023-11-19T02:33:39;31.90;;;7.40;;
15082;SDS011;7640;53.116;6.878;2023-11-19T02:36:08;39.70;;;7.67;;
15082;SDS011;7640;53.116;6.878;2023-11-19T02:38:37;32.93;;;7.70;;
15082;SDS011;7640;53.116;6.878;2023-11-19T02:41:06;31.67;;;7.97;;
15082;SDS011;7640;53.116;6.878;2023-11-19T02:43:36;32.43;;;7.57;;
15082;SDS011;7640;53.116;6.878;2023-11-19T02:46:06;32.37;;;7.90;;
15082;SDS011;7640;53.116;6.878;2023-11-19T02:48:38;35.57;;;6.83;;
15082;SDS011;7640;53.116;6.878;2023-11-19T02:51:06;36.87;;;7.37;;
15082;SDS011;7640;53.116;6.878;2023-11-19T02:53:37;38.80;;;7.63;;
15082;SDS011;7640;53.116;6.878;2023-11-19T02:56:07;33.57;;;7.77;;
15082;SDS011;7640;53.116;6.878;2023-11-19T02:58:46;33.80;;;7.50;;
15082;SDS011;7640;53.116;6.878;2023-11-19T03:01:22;42.40;;;8.27;;
15082;SDS011;7640;53.116;6.878;2023-11-19T03:03:57;40.80;;;8.23;;
15082;SDS011;7640;53.116;6.878;2023-11-19T03:06:29;30.73;;;7.80;;
15082;SDS011;7640;53.116;6.878;2023-11-19T03:08:58;36.13;;;8.47;;
15082;SDS011;7640;53.116;6.878;2023-11-19T03:11:32;29.87;;;6.77;;
15082;SDS011;7640;53.116;6.878;2023-11-19T03:14:00;28.20;;;7.17;;
15082;SDS011;7640;53.116;6.878;2023-11-19T03:16:31;35.07;;;8.33;;
15082;SDS011;7640;53.116;6.878;2023-11-19T03:19:00;32.00;;;6.63;;
15082;SDS011;7640;53.116;6.878;2023-11-19T03:21:34;38.83;;;8.13;;
15082;SDS011;7640;53.116;6.878;2023-11-19T03:24:03;42.67;;;8.60;;
15082;SDS011;7640;53.116;6.878;2023-11-19T03:26:33;28.07;;;8.30;;
15082;SDS011;7640;53.116;6.878;2023-11-19T03:29:01;37.13;;;7.67;;
15082;SDS011;7640;53.116;6.878;2023-11-19T03:31:32;31.93;;;8.73;;
15082;SDS011;7640;53.116;6.878;2023-11-19T03:34:00;28.30;;;7.07;;
15082;SDS011;7640;53.116;6.878;2023-11-19T03:36:31;29.03;;;7.60;;
15082;SDS011;7640;53.116;6.878;2023-11-19T03:39:00;25.93;;;6.30;;
15082;SDS011;7640;53.116;6.878;2023-11-19T03:41:30;31.37;;;7.00;;
15082;SDS011;7640;53.116;6.878;2023-11-19T03:44:01;34.43;;;7.57;;
15082;SDS011;7640;53.116;6.878;2023-11-19T03:46:29;30.67;;;6.97;;
15082;SDS011;7640;53.116;6.878;2023-11-19T03:48:59;37.87;;;7.73;;
15082;SDS011;7640;53.116;6.878;2023-11-19T03:51:28;32.40;;;7.30;;
15082;SDS011;7640;53.116;6.878;2023-11-19T03:53:57;28.47;;;7.87;;
15082;SDS011;7640;53.116;6.878;2023-11-19T03:56:25;32.17;;;7.60;;
15082;SDS011;7640;53.116;6.878;2023-11-19T03:58:54;28.50;;;6.83;;
15082;SDS011;7640;53.116;6.878;2023-11-19T04:01:23;30.50;;;6.77;;
15082;SDS011;7640;53.116;6.878;2023-11-19T04:03:53;44.67;;;7.40;;
15082;SDS011;7640;53.116;6.878;2023-11-19T04:06:23;33.33;;;6.63;;
15082;SDS011;7640;53.116;6.878;2023-11-19T04:08:52;34.47;;;6.90;;
15082;SDS011;7640;53.116;6.878;2023-11-19T04:11:22;39.70;;;8.50;;
15082;SDS011;7640;53.116;6.878;2023-11-19T04:13:50;42.37;;;7.90;;
15082;SDS011;7640;53.116;6.878;2023-11-19T04:16:19;34.83;;;7.67;;
15082;SDS011;7640;53.116;6.878;2023-11-19T04:18:57;35.60;;;7.00;;
15082;SDS011;7640;53.116;6.878;2023-11-19T04:21:26;39.10;;;8.43;;
15082;SDS011;7640;53.116;6.878;2023-11-19T04:23:55;38.60;;;7.80;;
15082;SDS011;7640;53.116;6.878;2023-11-19T04:26:23;36.47;;;7.87;;
15082;SDS011;7640;53.116;6.878;2023-11-19T04:28:52;30.37;;;7.50;;
15082;SDS011;7640;53.116;6.878;2023-11-19T04:31:21;42.17;;;7.57;;
15082;SDS011;7640;53.116;6.878;2023-11-19T04:33:50;34.87;;;7.87;;
15082;SDS011;7640;53.116;6.878;2023-11-19T04:36:20;35.83;;;6.57;;
15082;SDS011;7640;53.116;6.878;2023-11-19T04:38:50;37.20;;;6.70;;
15082;SDS011;7640;53.116;6.878;2023-11-19T04:41:19;36.43;;;6.27;;
15082;SDS011;7640;53.116;6.878;2023-11-19T04:43:47;31.43;;;7.23;;
15082;SDS011;7640;53.116;6.878;2023-11-19T04:46:16;28.83;;;6.83;;
15082;SDS011;7640;53.116;6.878;2023-11-19T04:48:45;35.10;;;6.90;;
15082;SDS011;7640;53.116;6.878;2023-11-19T04:51:13;27.50;;;6.93;;
15082;SDS011;7640;53.116;6.878;2023-11-19T04:53:43;36.80;;;7.47;;
15082;SDS011;7640;53.116;6.878;2023-11-19T04:56:12;31.93;;;6.97;;
15082;SDS011;7640;53.116;6.878;2023-11-19T04:58:41;33.87;;;7.47;;
15082;SDS011;7640;53.116;6.878;2023-11-19T05:01:13;35.93;;;7.67;;
15082;SDS011;7640;53.116;6.878;2023-11-19T05:03:43;33.97;;;7.57;;
15082;SDS011;7640;53.116;6.878;2023-11-19T05:06:13;27.03;;;6.30;;
15082;SDS011;7640;53.116;6.878;2023-11-19T05:08:41;40.27;;;8.03;;
15082;SDS011;7640;53.116;6.878;2023-11-19T05:11:12;40.60;;;8.70;;
15082;SDS011;7640;53.116;6.878;2023-11-19T05:13:46;41.73;;;7.50;;
15082;SDS011;7640;53.116;6.878;2023-11-19T05:16:14;34.77;;;7.07;;
15082;SDS011;7640;53.116;6.878;2023-11-19T05:18:44;27.67;;;6.50;;
15082;SDS011;7640;53.116;6.878;2023-11-19T05:21:12;40.83;;;7.20;;
15082;SDS011;7640;53.116;6.878;2023-11-19T05:23:40;34.43;;;7.30;;
15082;SDS011;7640;53.116;6.878;2023-11-19T05:26:16;36.13;;;7.90;;
15082;SDS011;7640;53.116;6.878;2023-11-19T05:28:46;33.27;;;7.40;;
15082;SDS011;7640;53.116;6.878;2023-11-19T05:31:15;35.83;;;7.53;;
15082;SDS011;7640;53.116;6.878;2023-11-19T05:33:46;32.03;;;6.23;;
15082;SDS011;7640;53.116;6.878;2023-11-19T05:36:15;35.33;;;6.77;;
15082;SDS011;7640;53.116;6.878;2023-11-19T05:38:43;38.03;;;7.53;;
15082;SDS011;7640;53.116;6.878;2023-11-19T05:41:13;41.23;;;7.57;;
15082;SDS011;7640;53.116;6.878;2023-11-19T05:43:42;29.27;;;6.60;;
15082;SDS011;7640;53.116;6.878;2023-11-19T05:46:10;34.90;;;7.07;;
15082;SDS011;7640;53.116;6.878;2023-11-19T05:48:42;34.43;;;7.00;;
15082;SDS011;7640;53.116;6.878;2023-11-19T05:51:13;40.07;;;7.63;;
15082;SDS011;7640;53.116;6.878;2023-11-19T05:53:42;38.47;;;7.07;;
15082;SDS011;7640;53.116;6.878;2023-11-19T05:56:14;39.13;;;7.67;;
15082;SDS011;7640;53.116;6.878;2023-11-19T05:58:47;31.73;;;7.27;;
15082;SDS011;7640;53.116;6.878;2023-11-19T06:01:16;40.40;;;7.17;;
15082;SDS011;7640;53.116;6.878;2023-11-19T06:03:45;32.60;;;6.70;;
15082;SDS011;7640;53.116;6.878;2023-11-19T06:06:16;30.73;;;6.87;;
15082;SDS011;7640;53.116;6.878;2023-11-19T06:08:45;37.00;;;7.23;;
15082;SDS011;7640;53.116;6.878;2023-11-19T06:11:15;40.73;;;7.23;;
15082;SDS011;7640;53.116;6.878;2023-11-19T06:13:47;32.40;;;6.13;;
15082;SDS011;7640;53.116;6.878;2023-11-19T06:16:17;31.53;;;7.07;;
15082;SDS011;7640;53.116;6.878;2023-11-19T06:18:46;33.17;;;6.83;;
15082;SDS011;7640;53.116;6.878;2023-11-19T06:21:14;37.67;;;7.60;;
15082;SDS011;7640;53.116;6.878;2023-11-19T06:23:43;40.87;;;8.67;;
15082;SDS011;7640;53.116;6.878;2023-11-19T06:26:11;33.97;;;7.30;;
15082;SDS011;7640;53.116;6.878;2023-11-19T06:28:41;36.87;;;7.80;;
15082;SDS011;7640;53.116;6.878;2023-11-19T06:31:11;40.47;;;7.73;;
15082;SDS011;7640;53.116;6.878;2023-11-19T06:33:42;32.03;;;7.43;;
15082;SDS011;7640;53.116;6.878;2023-11-19T06:36:13;35.50;;;7.80;;
15082;SDS011;7640;53.116;6.878;2023-11-19T06:38:43;38.13;;;6.63;;
15082;SDS011;7640;53.116;6.878;2023-11-19T06:41:11;42.20;;;7.13;;
15082;SDS011;7640;53.116;6.878;2023-11-19T06:43:41;27.93;;;6.93;;
15082;SDS011;7640;53.116;6.878;2023-11-19T06:46:16;35.70;;;6.80;;
15082;SDS011;7640;53.116;6.878;2023-11-19T06:48:44;34.50;;;6.30;;
15082;SDS011;7640;53.116;6.878;2023-11-19T06:51:13;35.07;;;7.03;;
15082;SDS011;7640;53.116;6.878;2023-11-19T06:53:42;37.20;;;7.40;;
15082;SDS011;7640;53.116;6.878;2023-11-19T06:56:18;29.43;;;6.67;;
15082;SDS011;7640;53.116;6.878;2023-11-19T06:58:53;36.67;;;7.63;;
15082;SDS011;7640;53.116;6.878;2023-11-19T07:01:22;28.03;;;6.10;;
15082;SDS011;7640;53.116;6.878;2023-11-19T07:03:50;31.60;;;7.20;;
15082;SDS011;7640;53.116;6.878;2023-11-19T07:06:19;30.13;;;5.77;;
15082;SDS011;7640;53.116;6.878;2023-11-19T07:09:01;32.50;;;7.07;;
15082;SDS011;7640;53.116;6.878;2023-11-19T07:11:36;32.03;;;7.00;;
15082;SDS011;7640;53.116;6.878;2023-11-19T07:14:07;33.17;;;6.13;;
15082;SDS011;7640;53.116;6.878;2023-11-19T07:16:36;34.17;;;6.43;;
15082;SDS011;7640;53.116;6.878;2023-11-19T07:19:05;35.60;;;6.97;;
15082;SDS011;7640;53.116;6.878;2023-11-19T07:21:34;37.00;;;7.50;;
15082;SDS011;7640;53.116;6.878;2023-11-19T07:24:06;36.67;;;6.73;;
15082;SDS011;7640;53.116;6.878;2023-11-19T07:26:35;42.40;;;7.53;;
15082;SDS011;7640;53.116;6.878;2023-11-19T07:29:04;40.00;;;7.97;;
15082;SDS011;7640;53.116;6.878;2023-11-19T07:31:35;35.33;;;7.23;;
15082;SDS011;7640;53.116;6.878;2023-11-19T07:34:03;33.27;;;7.93;;
15082;SDS011;7640;53.116;6.878;2023-11-19T07:36:33;43.63;;;7.23;;
15082;SDS011;7640;53.116;6.878;2023-11-19T07:39:03;34.63;;;7.27;;
15082;SDS011;7640;53.116;6.878;2023-11-19T07:41:31;33.53;;;7.13;;
15082;SDS011;7640;53.116;6.878;2023-11-19T07:44:00;25.50;;;6.83;;
15082;SDS011;7640;53.116;6.878;2023-11-19T07:46:30;39.40;;;6.70;;
15082;SDS011;7640;53.116;6.878;2023-11-19T07:48:59;41.03;;;7.70;;
15082;SDS011;7640;53.116;6.878;2023-11-19T07:51:29;33.67;;;6.37;;
15082;SDS011;7640;53.116;6.878;2023-11-19T07:53:57;35.07;;;6.37;;
15082;SDS011;7640;53.116;6.878;2023-11-19T07:56:26;34.77;;;6.83;;
15082;SDS011;7640;53.116;6.878;2023-11-19T07:58:55;30.93;;;6.30;;
15082;SDS011;7640;53.116;6.878;2023-11-19T08:01:24;36.87;;;7.17;;
15082;SDS011;7640;53.116;6.878;2023-11-19T08:03:54;38.40;;;7.63;;
15082;SDS011;7640;53.116;6.878;2023-11-19T08:06:25;35.00;;;7.47;;
15082;SDS011;7640;53.116;6.878;2023-11-19T08:08:54;34.27;;;7.03;;
15082;SDS011;7640;53.116;6.878;2023-11-19T08:11:25;38.83;;;7.20;;
15082;SDS011;7640;53.116;6.878;2023-11-19T08:13:54;30.60;;;5.67;;
15082;SDS011;7640;53.116;6.878;2023-11-19T08:16:23;31.77;;;7.10;;
15082;SDS011;7640;53.116;6.878;2023-11-19T08:18:52;41.30;;;6.97;;
15082;SDS011;7640;53.116;6.878;2023-11-19T08:21:24;38.07;;;7.00;;
15082;SDS011;7640;53.116;6.878;2023-11-19T08:23:53;37.40;;;7.27;;
15082;SDS011;7640;53.116;6.878;2023-11-19T08:26:22;32.70;;;6.93;;
15082;SDS011;7640;53.116;6.878;2023-11-19T08:28:51;35.03;;;6.53;;
15082;SDS011;7640;53.116;6.878;2023-11-19T08:31:19;41.10;;;8.40;;
15082;SDS011;7640;53.116;6.878;2023-11-19T08:33:48;34.30;;;6.97;;
15082;SDS011;7640;53.116;6.878;2023-11-19T08:36:17;38.10;;;7.13;;
15082;SDS011;7640;53.116;6.878;2023-11-19T08:38:47;37.80;;;6.87;;
15082;SDS011;7640;53.116;6.878;2023-11-19T08:41:16;36.27;;;6.77;;
15082;SDS011;7640;53.116;6.878;2023-11-19T08:43:46;35.80;;;6.53;;
15082;SDS011;7640;53.116;6.878;2023-11-19T08:46:14;38.03;;;7.23;;
15082;SDS011;7640;53.116;6.878;2023-11-19T08:48:42;33.67;;;7.50;;
15082;SDS011;7640;53.116;6.878;2023-11-19T08:51:11;36.27;;;7.33;;
15082;SDS011;7640;53.116;6.878;2023-11-19T08:53:41;38.07;;;7.50;;
15082;SDS011;7640;53.116;6.878;2023-11-19T08:56:09;35.67;;;6.77;;
15082;SDS011;7640;53.116;6.878;2023-11-19T08:58:38;36.70;;;7.03;;
15082;SDS011;7640;53.116;6.878;2023-11-19T09:01:07;33.33;;;6.60;;
15082;SDS011;7640;53.116;6.878;2023-11-19T09:03:36;31.93;;;6.30;;
15082;SDS011;7640;53.116;6.878;2023-11-19T09:06:05;30.77;;;6.50;;
15082;SDS011;7640;53.116;6.878;2023-11-19T09:08:34;40.13;;;8.33;;
15082;SDS011;7640;53.116;6.878;2023-11-19T09:11:07;38.20;;;6.57;;
15082;SDS011;7640;53.116;6.878;2023-11-19T09:13:36;45.23;;;7.20;;
15082;SDS011;7640;53.116;6.878;2023-11-19T09:16:05;42.73;;;7.07;;
15082;SDS011;7640;53.116;6.878;2023-11-19T09:18:35;37.73;;;6.93;;
15082;SDS011;7640;53.116;6.878;2023-11-19T09:21:04;34.20;;;6.97;;
15082;SDS011;7640;53.116;6.878;2023-11-19T09:23:33;33.77;;;7.40;;
15082;SDS011;7640;53.116;6.878;2023-11-19T09:26:05;34.03;;;7.70;;
15082;SDS011;7640;53.116;6.878;2023-11-19T09:28:36;36.37;;;7.40;;
15082;SDS011;7640;53.116;6.878;2023-11-19T09:31:12;34.93;;;6.93;;
15082;SDS011;7640;53.116;6.878;2023-11-19T09:33:41;32.37;;;6.50;;
15082;SDS011;7640;53.116;6.878;2023-11-19T09:36:11;42.93;;;6.73;;
15082;SDS011;7640;53.116;6.878;2023-11-19T09:38:41;42.23;;;7.43;;
15082;SDS011;7640;53.116;6.878;2023-11-19T09:41:11;39.93;;;8.37;;
15082;SDS011;7640;53.116;6.878;2023-11-19T09:43:40;40.80;;;7.63;;
15082;SDS011;7640;53.116;6.878;2023-11-19T09:46:09;44.17;;;7.73;;
15082;SDS011;7640;53.116;6.878;2023-11-19T09:48:38;36.33;;;7.07;;
15082;SDS011;7640;53.116;6.878;2023-11-19T09:51:07;34.00;;;7.23;;
15082;SDS011;7640;53.116;6.878;2023-11-19T09:53:36;29.47;;;6.90;;
15082;SDS011;7640;53.116;6.878;2023-11-19T09:56:06;36.70;;;6.10;;
15082;SDS011;7640;53.116;6.878;2023-11-19T09:58:38;39.23;;;6.60;;
15082;SDS011;7640;53.116;6.878;2023-11-19T10:01:06;32.83;;;7.67;;
15082;SDS011;7640;53.116;6.878;2023-11-19T10:03:40;34.93;;;7.20;;
15082;SDS011;7640;53.116;6.878;2023-11-19T10:06:10;39.57;;;7.43;;
15082;SDS011;7640;53.116;6.878;2023-11-19T10:08:39;49.17;;;8.63;;
15082;SDS011;7640;53.116;6.878;2023-11-19T10:11:09;36.40;;;7.87;;
15082;SDS011;7640;53.116;6.878;2023-11-19T10:13:41;45.03;;;7.93;;
15082;SDS011;7640;53.116;6.878;2023-11-19T10:16:10;36.03;;;6.43;;
15082;SDS011;7640;53.116;6.878;2023-11-19T10:18:42;36.30;;;6.40;;
15082;SDS011;7640;53.116;6.878;2023-11-19T10:21:12;43.07;;;6.80;;
15082;SDS011;7640;53.116;6.878;2023-11-19T10:23:50;34.60;;;7.73;;
15082;SDS011;7640;53.116;6.878;2023-11-19T10:26:20;37.90;;;7.70;;
15082;SDS011;7640;53.116;6.878;2023-11-19T10:28:53;27.27;;;5.83;;
15082;SDS011;7640;53.116;6.878;2023-11-19T10:31:24;33.23;;;6.80;;
15082;SDS011;7640;53.116;6.878;2023-11-19T10:33:53;34.63;;;6.80;;
15082;SDS011;7640;53.116;6.878;2023-11-19T10:36:23;32.47;;;7.40;;
15082;SDS011;7640;53.116;6.878;2023-11-19T10:39:07;27.73;;;6.70;;
15082;SDS011;7640;53.116;6.878;2023-11-19T10:41:36;36.20;;;7.63;;
15082;SDS011;7640;53.116;6.878;2023-11-19T10:44:06;29.70;;;6.53;;
15082;SDS011;7640;53.116;6.878;2023-11-19T10:46:38;34.43;;;7.03;;
15082;SDS011;7640;53.116;6.878;2023-11-19T10:49:08;45.00;;;7.33;;
15082;SDS011;7640;53.116;6.878;2023-11-19T10:51:37;32.90;;;6.67;;
15082;SDS011;7640;53.116;6.878;2023-11-19T10:54:12;43.10;;;7.57;;
15082;SDS011;7640;53.116;6.878;2023-11-19T10:56:47;29.60;;;6.90;;
15082;SDS011;7640;53.116;6.878;2023-11-19T10:59:25;34.67;;;7.10;;
15082;SDS011;7640;53.116;6.878;2023-11-19T11:02:00;44.57;;;6.97;;
15082;SDS011;7640;53.116;6.878;2023-11-19T11:04:35;40.73;;;8.27;;
15082;SDS011;7640;53.116;6.878;2023-11-19T11:07:08;35.07;;;6.93;;
15082;SDS011;7640;53.116;6.878;2023-11-19T11:09:38;38.37;;;7.13;;
15082;SDS011;7640;53.116;6.878;2023-11-19T11:12:11;32.70;;;6.47;;
15082;SDS011;7640;53.116;6.878;2023-11-19T11:14:42;35.90;;;7.63;;
15082;SDS011;7640;53.116;6.878;2023-11-19T11:17:14;38.17;;;6.83;;
15082;SDS011;7640;53.116;6.878;2023-11-19T11:19:45;32.27;;;6.47;;
15082;SDS011;7640;53.116;6.878;2023-11-19T11:22:13;27.90;;;6.10;;
15082;SDS011;7640;53.116;6.878;2023-11-19T11:27:57;36.80;;;6.43;;
15082;SDS011;7640;53.116;6.878;2023-11-19T11:30:44;26.40;;;5.73;;
15082;SDS011;7640;53.116;6.878;2023-11-19T11:33:32;37.33;;;6.47;;
15082;SDS011;7640;53.116;6.878;2023-11-19T11:36:26;30.50;;;6.50;;
15082;SDS011;7640;53.116;6.878;2023-11-19T11:38:58;33.13;;;7.07;;
15082;SDS011;7640;53.116;6.878;2023-11-19T11:41:27;28.80;;;6.43;;
15082;SDS011;7640;53.116;6.878;2023-11-19T11:43:57;36.27;;;6.73;;
15082;SDS011;7640;53.116;6.878;2023-11-19T11:49:25;33.97;;;6.80;;
15082;SDS011;7640;53.116;6.878;2023-11-19T11:52:00;34.27;;;7.30;;
15082;SDS011;7640;53.116;6.878;2023-11-19T11:54:30;37.77;;;6.40;;
15082;SDS011;7640;53.116;6.878;2023-11-19T11:57:06;34.97;;;7.17;;
15082;SDS011;7640;53.116;6.878;2023-11-19T11:59:43;29.43;;;6.27;;
15082;SDS011;7640;53.116;6.878;2023-11-19T12:02:16;30.07;;;6.93;;
15082;SDS011;7640;53.116;6.878;2023-11-19T12:04:47;34.07;;;6.00;;
15082;SDS011;7640;53.116;6.878;2023-11-19T12:07:20;30.10;;;6.33;;
15082;SDS011;7640;53.116;6.878;2023-11-19T12:09:51;36.93;;;6.70;;
15082;SDS011;7640;53.116;6.878;2023-11-19T12:12:26;31.87;;;6.23;;
15082;SDS011;7640;53.116;6.878;2023-11-19T12:15:06;30.27;;;6.63;;
15082;SDS011;7640;53.116;6.878;2023-11-19T12:17:48;26.83;;;6.33;;
15082;SDS011;7640;53.116;6.878;2023-11-19T12:20:18;34.67;;;7.20;;
15082;SDS011;7640;53.116;6.878;2023-11-19T12:22:52;38.13;;;7.23;;
15082;SDS011;7640;53.116;6.878;2023-11-19T12:25:22;36.40;;;6.57;;
15082;SDS011;7640;53.116;6.878;2023-11-19T12:27:51;34.80;;;6.30;;
15082;SDS011;7640;53.116;6.878;2023-11-19T12:30:21;31.20;;;5.83;;
15082;SDS011;7640;53.116;6.878;2023-11-19T12:32:55;38.03;;;7.03;;
15082;SDS011;7640;53.116;6.878;2023-11-19T12:35:23;41.33;;;7.33;;
15082;SDS011;7640;53.116;6.878;2023-11-19T12:37:53;40.90;;;7.10;;
15082;SDS011;7640;53.116;6.878;2023-11-19T12:40:22;30.43;;;6.77;;
15082;SDS011;7640;53.116;6.878;2023-11-19T12:42:52;40.03;;;8.03;;
15082;SDS011;7640;53.116;6.878;2023-11-19T12:45:23;39.33;;;7.37;;
15082;SDS011;7640;53.116;6.878;2023-11-19T12:48:05;36.37;;;8.37;;
15082;SDS011;7640;53.116;6.878;2023-11-19T12:53:25;31.93;;;6.87;;
15082;SDS011;7640;53.116;6.878;2023-11-19T12:55:54;30.43;;;6.57;;
15082;SDS011;7640;53.116;6.878;2023-11-19T12:58:29;40.03;;;7.60;;
15082;SDS011;7640;53.116;6.878;2023-11-19T13:00:59;32.27;;;6.80;;
15082;SDS011;7640;53.116;6.878;2023-11-19T13:03:31;36.40;;;6.83;;
15082;SDS011;7640;53.116;6.878;2023-11-19T13:06:01;36.67;;;6.60;;
15082;SDS011;7640;53.116;6.878;2023-11-19T13:08:38;37.43;;;7.17;;
15082;SDS011;7640;53.116;6.878;2023-11-19T13:11:08;35.43;;;6.97;;
15082;SDS011;7640;53.116;6.878;2023-11-19T13:13:55;38.03;;;6.93;;
15082;SDS011;7640;53.116;6.878;2023-11-19T13:16:25;32.53;;;6.90;;
15082;SDS011;7640;53.116;6.878;2023-11-19T13:18:57;32.23;;;6.30;;
15082;SDS011;7640;53.116;6.878;2023-11-19T13:21:27;34.47;;;7.30;;
15082;SDS011;7640;53.116;6.878;2023-11-19T13:23:56;34.17;;;6.47;;
15082;SDS011;7640;53.116;6.878;2023-11-19T13:26:25;30.20;;;5.63;;
15082;SDS011;7640;53.116;6.878;2023-11-19T13:28:53;37.57;;;5.83;;
15082;SDS011;7640;53.116;6.878;2023-11-19T13:31:23;28.97;;;6.13;;
15082;SDS011;7640;53.116;6.878;2023-11-19T13:33:52;26.63;;;5.40;;
15082;SDS011;7640;53.116;6.878;2023-11-19T13:36:22;37.97;;;6.40;;
15082;SDS011;7640;53.116;6.878;2023-11-19T13:38:53;28.03;;;5.60;;
15082;SDS011;7640;53.116;6.878;2023-11-19T13:41:25;39.00;;;5.90;;
15082;SDS011;7640;53.116;6.878;2023-11-19T13:43:55;35.93;;;6.23;;
15082;SDS011;7640;53.116;6.878;2023-11-19T13:46:26;33.50;;;6.43;;
15082;SDS011;7640;53.116;6.878;2023-11-19T13:48:54;34.00;;;6.53;;
15082;SDS011;7640;53.116;6.878;2023-11-19T13:51:25;29.57;;;6.00;;
15082;SDS011;7640;53.116;6.878;2023-11-19T13:53:53;32.33;;;6.17;;
15082;SDS011;7640;53.116;6.878;2023-11-19T13:56:22;28.43;;;6.20;;
15082;SDS011;7640;53.116;6.878;2023-11-19T13:58:50;28.13;;;6.30;;
15082;SDS011;7640;53.116;6.878;2023-11-19T14:01:20;32.33;;;7.00;;
15082;SDS011;7640;53.116;6.878;2023-11-19T14:03:51;29.23;;;6.43;;
15082;SDS011;7640;53.116;6.878;2023-11-19T14:06:21;26.80;;;5.70;;
15082;SDS011;7640;53.116;6.878;2023-11-19T14:08:51;31.03;;;6.73;;
15082;SDS011;7640;53.116;6.878;2023-11-19T14:11:19;30.83;;;6.20;;
15082;SDS011;7640;53.116;6.878;2023-11-19T14:13:48;22.67;;;5.80;;
15082;SDS011;7640;53.116;6.878;2023-11-19T14:16:16;28.53;;;5.97;;
15082;SDS011;7640;53.116;6.878;2023-11-19T14:18:45;25.07;;;6.17;;
15082;SDS011;7640;53.116;6.878;2023-11-19T14:21:15;31.07;;;6.53;;
15082;SDS011;7640;53.116;6.878;2023-11-19T14:23:44;29.63;;;6.03;;
15082;SDS011;7640;53.116;6.878;2023-11-19T14:26:13;28.10;;;5.87;;
15082;SDS011;7640;53.116;6.878;2023-11-19T14:28:42;35.07;;;5.80;;
15082;SDS011;7640;53.116;6.878;2023-11-19T14:31:13;30.80;;;4.97;;
15082;SDS011;7640;53.116;6.878;2023-11-19T14:33:41;25.87;;;6.27;;
15082;SDS011;7640;53.116;6.878;2023-11-19T14:36:10;30.50;;;6.47;;
15082;SDS011;7640;53.116;6.878;2023-11-19T14:38:38;26.83;;;6.60;;
15082;SDS011;7640;53.116;6.878;2023-11-19T14:41:07;29.37;;;5.90;;
15082;SDS011;7640;53.116;6.878;2023-11-19T14:43:38;31.30;;;7.13;;
15082;SDS011;7640;53.116;6.878;2023-11-19T14:46:07;35.03;;;6.97;;
15082;SDS011;7640;53.116;6.878;2023-11-19T14:48:36;36.50;;;6.80;;
15082;SDS011;7640;53.116;6.878;2023-11-19T14:51:04;33.20;;;6.23;;
15082;SDS011;7640;53.116;6.878;2023-11-19T14:53:33;28.50;;;5.93;;
15082;SDS011;7640;53.116;6.878;2023-11-19T14:56:02;24.97;;;5.43;;
15082;SDS011;7640;53.116;6.878;2023-11-19T14:58:31;35.37;;;5.80;;
15082;SDS011;7640;53.116;6.878;2023-11-19T15:01:01;27.43;;;5.20;;
15082;SDS011;7640;53.116;6.878;2023-11-19T15:03:31;25.10;;;5.80;;
15082;SDS011;7640;53.116;6.878;2023-11-19T15:06:22;35.10;;;5.50;;
15082;SDS011;7640;53.116;6.878;2023-11-19T15:08:52;26.23;;;6.20;;
15082;SDS011;7640;53.116;6.878;2023-11-19T15:11:22;27.57;;;5.83;;
15082;SDS011;7640;53.116;6.878;2023-11-19T15:13:51;30.33;;;6.27;;